Time;durP1;ratioP1;P1;durP2;ratioP2;P2;SDS_P1;SDS_P2;PMS_P1;PMS_P2;Temp;Humidity;BMP_temperature;BMP_pressure;BME280_temperature;BME280_humidity;BME280_pressure;Samples;Min_cycle;Max_cycle;Signal;HPM_P1;HPM_P2
2022/04/16 00:00:17;;;;;;;18.13;12.25;;;8.40;99.90;;;;;;5051634;28;20053;-71
2022/04/16 00:02:45;;;;;;;18.13;11.95;;;8.40;99.90;;;;;;5051048;28;20147;-71
2022/04/16 00:05:12;;;;;;;19.85;12.35;;;8.40;99.90;;;;;;5061467;28;20135;-71
2022/04/16 00:07:41;;;;;;;16.33;11.27;;;8.20;99.90;;;;;;5032495;28;20054;-71
2022/04/16 00:10:09;;;;;;;24.52;11.75;;;8.20;99.90;;;;;;5032074;28;20053;-71
2022/04/16 00:12:36;;;;;;;19.65;12.07;;;8.10;99.90;;;;;;5035014;28;20136;-70
2022/04/16 00:15:04;;;;;;;19.33;12.02;;;8.00;99.90;;;;;;5067987;28;20140;-71
2022/04/16 00:17:31;;;;;;;18.45;12.35;;;7.90;99.90;;;;;;5035721;28;20054;-71
2022/04/16 00:20:02;;;;;;;16.83;11.93;;;7.80;99.90;;;;;;5070582;28;20077;-71
2022/04/16 00:22:29;;;;;;;24.17;13.73;;;7.70;99.90;;;;;;5054540;28;20488;-71
2022/04/16 00:24:57;;;;;;;17.85;12.00;;;7.60;99.90;;;;;;5055497;28;20131;-70
2022/04/16 00:27:24;;;;;;;18.63;12.65;;;7.50;99.90;;;;;;5054446;28;20540;-70
2022/04/16 00:29:50;;;;;;;22.65;13.60;;;7.40;99.90;;;;;;5054535;28;20398;-70
2022/04/16 00:32:19;;;;;;;19.83;12.90;;;7.40;99.90;;;;;;5055847;28;20174;-70
2022/04/16 00:34:46;;;;;;;23.42;13.70;;;7.30;99.90;;;;;;5053621;28;20135;-70
2022/04/16 00:37:13;;;;;;;23.02;13.95;;;7.20;99.90;;;;;;5054242;28;20124;-70
2022/04/16 00:39:40;;;;;;;20.85;13.43;;;7.20;99.90;;;;;;5055571;28;20123;-70
2022/04/16 00:42:08;;;;;;;20.00;13.68;;;7.10;99.90;;;;;;5054689;28;20128;-71
2022/04/16 00:44:35;;;;;;;19.73;13.05;;;7.10;99.90;;;;;;5054982;28;20496;-70
2022/04/16 00:47:02;;;;;;;21.02;13.55;;;7.00;99.90;;;;;;5055492;28;20132;-70
2022/04/16 00:49:29;;;;;;;21.85;14.52;;;7.00;99.90;;;;;;5054480;28;20580;-71
2022/04/16 00:51:56;;;;;;;23.33;13.73;;;7.00;99.90;;;;;;5053785;28;20083;-70
2022/04/16 00:54:23;;;;;;;19.40;12.95;;;6.90;99.90;;;;;;5053852;28;20048;-71
2022/04/16 00:56:50;;;;;;;22.65;13.77;;;7.00;99.90;;;;;;5054443;28;20516;-70
2022/04/16 00:59:18;;;;;;;22.77;13.55;;;7.00;99.90;;;;;;5053646;28;20080;-70
2022/04/16 01:01:45;;;;;;;21.92;13.05;;;7.10;99.90;;;;;;5054509;28;20499;-70
2022/04/16 01:04:13;;;;;;;19.63;13.30;;;7.10;99.90;;;;;;5054680;28;20564;-70
2022/04/16 01:06:42;;;;;;;21.05;14.10;;;7.20;99.90;;;;;;5055006;28;20088;-70
2022/04/16 01:09:09;;;;;;;24.40;14.25;;;7.20;99.90;;;;;;5053174;28;20048;-70
2022/04/16 01:11:36;;;;;;;19.63;13.95;;;7.20;99.90;;;;;;5054860;28;20080;-70
2022/04/16 01:14:03;;;;;;;21.63;15.25;;;7.10;99.90;;;;;;5054664;28;20080;-70
2022/04/16 01:16:32;;;;;;;23.70;14.52;;;7.10;99.90;;;;;;5054279;28;20080;-70
2022/04/16 01:18:59;;;;;;;23.30;15.05;;;7.10;99.90;;;;;;5054722;28;20452;-70
2022/04/16 01:21:26;;;;;;;25.83;14.80;;;7.10;99.90;;;;;;5054816;28;20080;-70
2022/04/16 01:23:54;;;;;;;20.58;15.10;;;7.00;99.90;;;;;;5052603;28;20057;-70
2022/04/16 01:26:22;;;;;;;20.05;13.95;;;7.00;99.90;;;;;;5054605;28;20057;-71
2022/04/16 01:28:49;;;;;;;23.55;14.13;;;6.90;99.90;;;;;;5054583;28;20099;-71
2022/04/16 01:31:16;;;;;;;21.77;13.20;;;6.90;99.90;;;;;;5052730;28;20080;-71
2022/04/16 01:33:42;;;;;;;22.17;14.90;;;6.80;99.90;;;;;;5054396;28;20488;-71
2022/04/16 01:36:09;;;;;;;23.00;15.02;;;6.70;99.90;;;;;;5053073;28;20132;-71
2022/04/16 01:38:36;;;;;;;24.92;15.98;;;6.60;99.90;;;;;;5052287;28;20090;-71
2022/04/16 01:41:04;;;;;;;25.30;15.73;;;6.60;99.90;;;;;;5053279;28;20140;-71
2022/04/16 01:43:31;;;;;;;24.60;15.90;;;6.50;99.90;;;;;;5054113;28;20489;-71
2022/04/16 01:45:58;;;;;;;23.25;15.43;;;6.50;99.90;;;;;;5053143;28;20091;-71
2022/04/16 01:48:27;;;;;;;28.20;17.27;;;6.50;99.90;;;;;;5053107;28;20160;-71
2022/04/16 01:50:55;;;;;;;25.02;16.48;;;6.40;99.90;;;;;;5053224;28;20053;-71
2022/04/16 01:53:22;;;;;;;24.42;15.95;;;6.40;99.90;;;;;;5053952;28;20049;-71
2022/04/16 01:55:49;;;;;;;29.80;17.38;;;6.40;99.90;;;;;;5053613;28;20056;-70
2022/04/16 01:58:20;;;;;;;24.92;17.45;;;6.30;99.90;;;;;;5053355;28;20044;-71
2022/04/16 02:00:47;;;;;;;24.02;16.08;;;6.30;99.90;;;;;;5053428;28;20126;-71
2022/04/16 02:03:14;;;;;;;28.00;17.58;;;6.30;99.90;;;;;;5053823;28;20132;-71
2022/04/16 02:05:41;;;;;;;28.80;17.52;;;6.30;99.90;;;;;;5053133;28;20060;-71
2022/04/16 02:08:08;;;;;;;26.05;16.58;;;6.30;99.90;;;;;;5052462;28;20092;-70
2022/04/16 02:10:35;;;;;;;26.60;16.88;;;6.30;99.90;;;;;;5053641;28;20092;-70
2022/04/16 02:13:02;;;;;;;26.40;17.13;;;6.20;99.90;;;;;;5052110;28;20151;-70
2022/04/16 02:15:30;;;;;;;28.25;18.95;;;6.20;99.90;;;;;;5053045;28;20128;-70
2022/04/16 02:17:57;;;;;;;27.08;18.25;;;6.20;99.90;;;;;;5052332;28;20084;-70
2022/04/16 02:20:24;;;;;;;30.83;18.90;;;6.30;99.90;;;;;;5052028;28;20445;-70
2022/04/16 02:22:53;;;;;;;32.38;18.20;;;6.30;99.90;;;;;;5053381;28;20455;-70
2022/04/16 02:25:23;;;;;;;36.13;20.75;;;6.30;99.90;;;;;;5053358;28;20056;-70
2022/04/16 02:27:51;;;;;;;33.92;21.55;;;6.30;99.90;;;;;;5051497;28;20114;-70
2022/04/16 02:30:18;;;;;;;28.95;19.30;;;6.30;99.90;;;;;;5052260;28;20087;-70
2022/04/16 02:32:48;;;;;;;30.48;18.98;;;6.20;99.90;;;;;;5052223;28;20136;-70
2022/04/16 02:35:16;;;;;;;33.50;19.33;;;6.30;99.90;;;;;;5051391;28;20145;-70
2022/04/16 02:37:44;;;;;;;33.33;21.25;;;6.30;99.90;;;;;;5051789;28;20052;-70
2022/04/16 02:40:12;;;;;;;32.80;20.23;;;6.40;99.90;;;;;;5052177;28;20584;-70
2022/04/16 02:42:40;;;;;;;34.35;21.67;;;6.50;99.90;;;;;;5052104;28;20475;-70
2022/04/16 02:47:56;;;;;;;30.15;18.77;;;6.60;99.90;;;;;;5051435;28;20052;-70
2022/04/16 02:50:25;;;;;;;31.70;19.23;;;6.60;99.90;;;;;;5052590;28;20110;-71
2022/04/16 02:52:51;;;;;;;29.40;19.27;;;6.70;99.90;;;;;;5051600;28;20059;-71
2022/04/16 02:55:18;;;;;;;26.40;17.15;;;6.70;99.90;;;;;;5051151;28;20523;-71
2022/04/16 02:57:46;;;;;;;26.77;17.88;;;6.90;99.90;;;;;;5051904;28;20136;-71
2022/04/16 03:00:14;;;;;;;26.42;17.52;;;7.00;99.90;;;;;;5051622;28;20135;-71
2022/04/16 03:02:41;;;;;;;26.80;17.10;;;7.10;99.90;;;;;;5050938;28;20493;-71
2022/04/16 03:05:11;;;;;;;28.15;17.83;;;7.20;99.90;;;;;;5052444;28;20468;-71
2022/04/16 03:07:38;;;;;;;27.58;17.63;;;7.40;99.90;;;;;;5051857;28;20146;-71
2022/04/16 03:10:06;;;;;;;24.42;16.90;;;7.40;99.90;;;;;;5052102;28;20600;-71
2022/04/16 03:12:41;;;;;;;21.65;15.80;;;7.50;99.90;;;;;;5068025;28;20045;-71
2022/04/16 03:17:55;;;;;;;27.45;18.02;;;7.60;99.90;;;;;;5052589;28;20052;-71
2022/04/16 03:20:23;;;;;;;25.90;17.98;;;7.70;99.90;;;;;;5051365;28;20049;-71
2022/04/16 03:22:50;;;;;;;25.05;17.42;;;7.70;99.90;;;;;;5052272;28;20080;-71
2022/04/16 03:25:17;;;;;;;29.52;19.23;;;7.80;99.90;;;;;;5052691;28;20201;-71
2022/04/16 03:27:44;;;;;;;27.58;18.88;;;7.80;99.90;;;;;;5052525;28;20518;-71
2022/04/16 03:30:11;;;;;;;29.98;19.90;;;7.80;99.90;;;;;;5051707;28;20045;-71
2022/04/16 03:32:41;;;;;;;30.90;20.10;;;7.80;99.90;;;;;;5067839;28;20481;-70
2022/04/16 03:35:09;;;;;;;27.13;17.52;;;7.80;99.90;;;;;;5052359;28;20089;-71
2022/04/16 03:37:38;;;;;;;25.60;17.80;;;7.90;99.90;;;;;;5052001;28;20131;-71
2022/04/16 03:40:06;;;;;;;24.17;17.35;;;7.90;99.90;;;;;;5052711;28;20239;-70
2022/04/16 03:42:33;;;;;;;28.42;19.02;;;7.90;99.90;;;;;;5051174;28;20136;-70
2022/04/16 03:45:01;;;;;;;31.10;19.58;;;8.00;99.90;;;;;;5051562;28;20049;-70
2022/04/16 03:47:28;;;;;;;26.52;18.85;;;8.00;99.90;;;;;;5054328;28;20049;-70
2022/04/16 03:49:55;;;;;;;30.25;18.90;;;8.00;99.90;;;;;;5055315;28;20067;-70
2022/04/16 03:52:22;;;;;;;29.52;20.80;;;8.00;99.90;;;;;;5055705;28;20076;-70
2022/04/16 04:00:19;;;;;;;30.75;20.83;;;7.90;99.90;;;;;;5071816;28;20485;-72
2022/04/16 04:02:46;;;;;;;32.47;21.17;;;8.00;99.90;;;;;;5054650;28;20041;-70
2022/04/16 04:05:12;;;;;;;33.70;21.88;;;7.90;99.90;;;;;;5054384;28;20110;-71
2022/04/16 04:07:39;;;;;;;33.35;21.42;;;7.90;99.90;;;;;;5056006;28;20049;-70
2022/04/16 04:10:10;;;;;;;29.73;20.83;;;7.90;99.90;;;;;;5071280;28;20075;-70
2022/04/16 04:12:37;;;;;;;36.28;21.42;;;7.90;99.90;;;;;;5070635;28;20068;-70
2022/04/16 04:15:04;;;;;;;33.65;21.85;;;7.90;99.90;;;;;;5055658;28;20085;-70
2022/04/16 04:17:31;;;;;;;32.95;23.38;;;7.80;99.90;;;;;;5054746;28;20140;-70
2022/04/16 04:19:58;;;;;;;35.67;22.65;;;7.80;99.90;;;;;;5055253;28;20060;-71
2022/04/16 04:22:25;;;;;;;34.72;22.73;;;7.80;99.90;;;;;;5054577;28;20132;-71
2022/04/16 04:24:52;;;;;;;34.47;22.88;;;7.80;99.90;;;;;;5055379;28;20088;-71
2022/04/16 04:27:20;;;;;;;36.95;22.65;;;7.80;99.90;;;;;;5053659;28;20057;-71
2022/04/16 04:29:47;;;;;;;32.83;22.90;;;7.80;99.90;;;;;;5054028;28;20049;-71
2022/04/16 04:32:14;;;;;;;34.17;22.70;;;7.70;99.90;;;;;;5054150;28;20155;-70
2022/04/16 04:34:40;;;;;;;37.28;23.73;;;7.80;99.90;;;;;;5054719;28;20107;-70
2022/04/16 04:37:07;;;;;;;32.72;22.10;;;7.80;99.90;;;;;;5055529;28;20459;-70
2022/04/16 04:39:34;;;;;;;35.58;22.27;;;7.80;99.90;;;;;;5053301;28;20053;-70
2022/04/16 04:42:01;;;;;;;34.00;21.98;;;7.80;99.90;;;;;;5055393;28;20092;-70
2022/04/16 04:44:29;;;;;;;32.70;22.38;;;7.70;99.90;;;;;;5054962;28;20095;-70
2022/04/16 04:46:56;;;;;;;36.70;20.98;;;7.70;99.90;;;;;;5033345;28;20107;-70
2022/04/16 04:49:23;;;;;;;35.33;22.23;;;7.70;99.90;;;;;;5050851;28;20132;-70
2022/04/16 04:51:49;;;;;;;32.83;21.35;;;7.70;99.90;;;;;;5035178;28;20142;-70
2022/04/16 04:54:16;;;;;;;32.03;21.50;;;7.70;99.90;;;;;;5050553;28;20455;-70
2022/04/16 04:56:43;;;;;;;36.17;22.48;;;7.70;99.90;;;;;;5054914;28;20480;-70
2022/04/16 04:59:10;;;;;;;31.83;21.25;;;7.70;99.90;;;;;;5055264;28;20458;-71
2022/04/16 05:01:39;;;;;;;35.05;23.27;;;7.70;99.90;;;;;;5054306;28;20057;-72
2022/04/16 05:04:06;;;;;;;36.20;23.02;;;7.70;99.90;;;;;;5054804;28;20132;-71
2022/04/16 05:06:32;;;;;;;36.13;23.25;;;7.70;99.90;;;;;;5053871;28;20164;-71
2022/04/16 05:08:59;;;;;;;39.00;24.33;;;7.70;99.90;;;;;;5052696;28;20079;-71
2022/04/16 05:11:26;;;;;;;34.00;22.42;;;7.70;99.90;;;;;;5054855;28;20568;-71
2022/04/16 05:13:53;;;;;;;35.90;24.17;;;7.70;99.90;;;;;;5053799;28;20522;-71
2022/04/16 05:16:19;;;;;;;37.92;23.92;;;7.70;99.90;;;;;;5054101;28;20084;-71
2022/04/16 05:18:48;;;;;;;32.65;22.20;;;7.70;99.90;;;;;;5054599;28;20057;-71
2022/04/16 05:21:14;;;;;;;34.25;22.65;;;7.80;99.90;;;;;;5054515;28;20044;-71
2022/04/16 05:23:42;;;;;;;34.10;21.35;;;7.80;99.90;;;;;;5053084;28;20150;-72
2022/04/16 05:26:09;;;;;;;32.95;20.00;;;7.80;99.90;;;;;;5053165;28;20140;-71
2022/04/16 05:28:37;;;;;;;29.20;19.48;;;7.80;99.90;;;;;;5070061;28;20061;-71
2022/04/16 05:31:05;;;;;;;29.75;21.00;;;7.90;99.90;;;;;;5052825;28;20146;-71
2022/04/16 05:36:18;;;;;;;29.70;19.48;;;7.90;99.90;;;;;;5053705;28;20048;-70
2022/04/16 05:38:45;;;;;;;30.08;18.30;;;7.90;99.90;;;;;;5054470;28;20045;-70
2022/04/16 05:41:12;;;;;;;26.73;17.58;;;8.00;99.90;;;;;;5054437;28;20126;-70
2022/04/16 05:43:39;;;;;;;23.48;16.48;;;8.00;99.90;;;;;;5052559;28;20056;-70
2022/04/16 05:46:06;;;;;;;26.02;16.27;;;8.00;99.90;;;;;;5052775;28;20111;-71
2022/04/16 05:48:33;;;;;;;24.00;15.35;;;8.00;99.90;;;;;;5054134;28;20119;-71
2022/04/16 05:51:00;;;;;;;23.00;15.68;;;8.00;99.90;;;;;;5052004;28;20545;-71
2022/04/16 05:53:28;;;;;;;24.73;16.52;;;8.10;99.90;;;;;;5052760;28;20111;-71
2022/04/16 05:55:55;;;;;;;24.70;16.58;;;8.10;99.90;;;;;;5053959;28;20136;-71
2022/04/16 05:58:22;;;;;;;24.10;16.10;;;8.10;99.90;;;;;;5053255;28;20070;-71
2022/04/16 06:00:49;;;;;;;21.63;14.20;;;8.20;99.90;;;;;;5053768;28;20045;-71
2022/04/16 06:03:16;;;;;;;23.10;14.10;;;8.20;99.90;;;;;;5052760;28;20500;-71
2022/04/16 06:05:43;;;;;;;21.05;14.50;;;8.20;99.90;;;;;;5053139;28;20123;-71
2022/04/16 06:08:10;;;;;;;20.02;14.15;;;8.30;99.90;;;;;;5052355;28;20531;-71
2022/04/16 06:10:38;;;;;;;21.13;14.52;;;8.30;99.90;;;;;;5053481;28;20128;-71
2022/04/16 06:13:06;;;;;;;24.20;15.68;;;8.30;99.90;;;;;;5068510;28;20081;-71
2022/04/16 06:15:33;;;;;;;23.50;13.68;;;8.30;99.90;;;;;;5053397;28;20102;-71
2022/04/16 06:18:00;;;;;;;23.55;15.13;;;8.30;99.90;;;;;;5052951;28;20084;-71
2022/04/16 06:20:27;;;;;;;21.55;13.75;;;8.40;99.90;;;;;;5053398;28;20088;-71
2022/04/16 06:22:53;;;;;;;22.30;14.48;;;8.40;99.90;;;;;;5052262;28;20133;-71
2022/04/16 06:25:20;;;;;;;20.73;13.32;;;8.40;99.90;;;;;;5051827;28;20135;-71
2022/04/16 06:27:48;;;;;;;20.13;13.05;;;8.40;99.90;;;;;;5051818;28;20136;-71
2022/04/16 06:30:15;;;;;;;21.75;13.75;;;8.40;99.90;;;;;;5052041;28;20088;-71
2022/04/16 06:32:42;;;;;;;22.05;14.30;;;8.40;99.90;;;;;;5053052;28;20127;-71
2022/04/16 06:35:12;;;;;;;23.42;15.38;;;8.50;99.90;;;;;;5053308;28;20117;-72
2022/04/16 06:37:41;;;;;;;21.57;15.63;;;8.50;99.90;;;;;;5068904;28;20556;-72
2022/04/16 06:40:09;;;;;;;23.02;15.30;;;8.70;99.90;;;;;;5051689;28;20053;-72
2022/04/16 06:42:36;;;;;;;19.45;13.38;;;8.90;99.90;;;;;;5053173;28;20096;-71
2022/04/16 06:45:07;;;;;;;19.35;13.00;;;9.20;99.90;;;;;;5051406;28;20122;-71
2022/04/16 06:47:34;;;;;;;23.65;13.73;;;9.60;99.90;;;;;;5051713;28;20572;-72
2022/04/16 06:50:01;;;;;;;19.00;11.95;;;10.20;99.90;;;;;;5051733;28;20087;-71
2022/04/16 06:52:28;;;;;;;17.60;11.75;;;11.10;99.90;;;;;;5053065;28;20041;-71
2022/04/16 06:54:56;;;;;;;17.88;11.63;;;11.90;99.90;;;;;;5051188;28;20144;-71
2022/04/16 06:57:23;;;;;;;17.90;11.30;;;12.60;99.90;;;;;;5053009;28;20552;-71
2022/04/16 06:59:50;;;;;;;17.58;11.10;;;13.20;99.90;;;;;;5052985;28;20132;-71
2022/04/16 07:02:18;;;;;;;15.73;10.75;;;13.80;99.90;;;;;;5043715;28;20132;-71
2022/04/16 07:04:45;;;;;;;15.93;10.57;;;14.40;99.90;;;;;;5048391;28;20081;-72
2022/04/16 07:07:12;;;;;;;15.93;10.73;;;14.60;99.90;;;;;;5050149;28;20132;-73
2022/04/16 07:09:39;;;;;;;16.17;10.80;;;15.00;99.90;;;;;;5051434;28;20168;-72
2022/04/16 07:12:09;;;;;;;15.35;10.43;;;15.30;99.90;;;;;;5048645;28;20523;-72
2022/04/16 07:14:37;;;;;;;14.93;9.30;;;15.80;99.90;;;;;;5049744;28;20049;-72
2022/04/16 07:17:04;;;;;;;13.75;9.10;;;15.80;98.00;;;;;;5049349;28;20131;-73
2022/04/16 07:19:33;;;;;;;12.73;8.63;;;16.20;96.60;;;;;;5050214;28;20135;-72
2022/04/16 07:22:00;;;;;;;14.20;8.43;;;16.70;93.30;;;;;;5052479;28;20450;-73
2022/04/16 07:24:27;;;;;;;11.35;8.48;;;16.50;93.20;;;;;;5054178;28;20049;-73
2022/04/16 07:26:54;;;;;;;12.77;8.10;;;17.40;93.50;;;;;;5053467;28;20135;-73
2022/04/16 07:29:21;;;;;;;11.23;8.27;;;17.60;88.00;;;;;;5053843;28;20045;-73
2022/04/16 07:31:48;;;;;;;10.77;7.20;;;17.70;87.70;;;;;;5054591;28;20087;-74
2022/04/16 07:34:15;;;;;;;9.98;7.35;;;17.70;89.70;;;;;;5055390;28;20124;-73
2022/04/16 07:36:44;;;;;;;11.48;7.55;;;18.10;88.20;;;;;;5052771;28;20144;-73
2022/04/16 07:39:11;;;;;;;10.23;7.45;;;18.20;86.60;;;;;;5053470;28;20131;-73
2022/04/16 07:41:39;;;;;;;11.18;8.02;;;18.40;86.90;;;;;;5053041;28;20126;-72
2022/04/16 07:44:06;;;;;;;11.93;8.10;;;18.60;85.10;;;;;;5053043;28;20124;-73
2022/04/16 07:46:34;;;;;;;10.38;7.80;;;18.20;84.80;;;;;;5053156;28;20132;-71
2022/04/16 07:49:01;;;;;;;10.77;7.57;;;19.10;83.60;;;;;;5053636;28;20084;-71
2022/04/16 07:51:29;;;;;;;12.30;7.85;;;19.10;80.60;;;;;;5052239;28;20107;-71
2022/04/16 07:53:58;;;;;;;12.88;8.27;;;19.10;77.10;;;;;;5053314;28;20407;-72
2022/04/16 07:56:26;;;;;;;11.10;7.65;;;18.60;75.60;;;;;;5053196;28;20485;-73
2022/04/16 07:58:53;;;;;;;11.13;7.35;;;18.90;78.40;;;;;;5052441;28;20052;-73
2022/04/16 08:01:21;;;;;;;9.20;5.97;;;19.20;78.10;;;;;;5048314;28;20448;-73
2022/04/16 08:03:48;;;;;;;12.57;7.70;;;19.40;76.80;;;;;;5053636;28;20437;-73
2022/04/16 08:06:14;;;;;;;11.65;7.88;;;19.90;76.80;;;;;;5052209;28;20483;-74
2022/04/16 08:08:42;;;;;;;11.75;6.85;;;20.40;76.00;;;;;;5053232;28;20081;-73
2022/04/16 08:11:10;;;;;;;10.30;6.43;;;20.60;75.00;;;;;;5051828;28;20425;-73
2022/04/16 08:13:37;;;;;;;10.35;6.35;;;20.10;71.40;;;;;;5052001;28;20461;-72
2022/04/16 08:16:04;;;;;;;11.05;6.72;;;19.90;70.80;;;;;;5053116;28;21156;-74
2022/04/16 08:18:31;;;;;;;9.82;6.10;;;19.20;69.90;;;;;;5053133;28;20461;-73
2022/04/16 08:20:58;;;;;;;9.43;6.70;;;19.20;71.00;;;;;;5052773;28;20128;-74
2022/04/16 08:23:26;;;;;;;8.73;5.90;;;19.10;72.00;;;;;;5052330;28;20373;-74
2022/04/16 08:25:53;;;;;;;8.43;6.05;;;19.20;71.90;;;;;;5053324;28;20115;-74
2022/04/16 08:28:21;;;;;;;8.45;5.53;;;19.40;70.30;;;;;;5054108;28;20091;-74
2022/04/16 08:30:48;;;;;;;8.73;5.70;;;19.50;70.00;;;;;;5052876;28;20140;-74
2022/04/16 08:33:16;;;;;;;5.85;4.13;;;19.90;69.80;;;;;;5051272;28;20044;-74
2022/04/16 08:35:44;;;;;;;6.60;4.22;;;20.10;67.40;;;;;;5052403;28;20136;-74
2022/04/16 08:38:11;;;;;;;5.28;3.30;;;19.80;66.10;;;;;;5053797;28;20045;-74
2022/04/16 08:40:38;;;;;;;4.72;3.17;;;19.80;61.90;;;;;;5050112;28;20187;-74
2022/04/16 08:43:07;;;;;;;5.68;3.42;;;19.90;62.80;;;;;;5053497;28;20080;-74
2022/04/16 08:45:38;;;;;;;6.13;3.67;;;20.60;64.10;;;;;;5054170;28;20057;-74
2022/04/16 08:48:06;;;;;;;4.13;2.53;;;20.90;61.90;;;;;;5051270;28;20139;-73
2022/04/16 08:50:33;;;;;;;6.18;3.10;;;21.10;61.90;;;;;;5052875;28;20493;-73
2022/04/16 08:53:00;;;;;;;4.35;2.75;;;20.90;60.70;;;;;;5050964;28;20041;-73
2022/04/16 08:55:28;;;;;;;6.80;2.90;;;21.00;60.40;;;;;;5050908;28;20129;-73
2022/04/16 08:57:56;;;;;;;3.78;2.13;;;21.00;59.00;;;;;;5050553;28;20049;-73
2022/04/16 09:00:23;;;;;;;4.28;2.40;;;20.70;57.10;;;;;;5051197;28;20087;-73
2022/04/16 09:02:52;;;;;;;3.38;2.42;;;21.00;57.70;;;;;;5048164;28;20328;-73
2022/04/16 09:05:20;;;;;;;4.13;2.33;;;20.90;57.00;;;;;;5050773;28;20136;-73
2022/04/16 09:07:49;;;;;;;5.97;2.28;;;21.70;55.90;;;;;;5052740;28;20404;-75
2022/04/16 09:10:16;;;;;;;4.32;2.03;;;21.10;55.30;;;;;;5052152;28;20128;-74
2022/04/16 09:12:44;;;;;;;3.97;2.20;;;21.20;56.40;;;;;;5048950;28;20128;-74
2022/04/16 09:15:13;;;;;;;2.92;1.83;;;21.50;57.00;;;;;;5052652;28;20072;-76
2022/04/16 09:17:40;;;;;;;3.53;2.08;;;21.50;56.40;;;;;;5052597;28;20098;-74
2022/04/16 09:20:12;;;;;;;4.07;2.00;;;21.60;54.50;;;;;;5052215;28;20116;-74
2022/04/16 09:22:40;;;;;;;2.42;1.60;;;21.80;55.30;;;;;;5050741;28;20136;-74
2022/04/16 09:25:15;;;;;;;3.03;1.55;;;22.20;54.40;;;;;;5049162;28;20080;-74
2022/04/16 09:27:43;;;;;;;5.30;1.48;;;22.00;50.90;;;;;;5049717;28;20052;-73
2022/04/16 09:30:10;;;;;;;3.58;1.52;;;22.50;53.60;;;;;;5048810;28;20052;-73
2022/04/16 09:32:45;;;;;;;2.83;1.02;;;21.70;50.10;;;;;;5049650;28;20454;-74
2022/04/16 09:35:27;;;;;;;2.72;1.27;;;21.50;48.10;;;;;;5048767;28;20049;-75
2022/04/16 09:37:56;;;;;;;2.22;1.15;;;21.70;48.10;;;;;;5050622;28;20135;-74
2022/04/16 09:40:25;;;;;;;1.85;0.88;;;21.70;50.10;;;;;;5049746;28;20436;-75
2022/04/16 09:42:56;;;;;;;4.33;1.10;;;21.70;48.50;;;;;;5048950;28;20461;-74
2022/04/16 09:45:23;;;;;;;2.28;1.23;;;21.30;49.20;;;;;;5049712;28;20337;-75
2022/04/16 09:47:51;;;;;;;4.07;1.10;;;21.70;50.00;;;;;;5050296;28;20071;-74
2022/04/16 09:50:19;;;;;;;3.22;0.90;;;22.00;48.70;;;;;;5049873;28;20052;-74
2022/04/16 09:52:52;;;;;;;2.58;0.98;;;22.10;49.10;;;;;;5051932;28;20219;-74
2022/04/16 09:55:21;;;;;;;2.47;1.00;;;22.00;49.20;;;;;;5050714;28;20480;-73
2022/04/16 09:57:51;;;;;;;1.70;0.90;;;22.00;50.10;;;;;;5050830;28;20056;-74
2022/04/16 10:00:18;;;;;;;1.73;0.80;;;22.00;48.80;;;;;;5051175;28;20496;-74
2022/04/16 10:02:47;;;;;;;3.15;1.10;;;21.90;48.20;;;;;;5050281;28;20099;-73
2022/04/16 10:05:13;;;;;;;2.28;1.50;;;22.10;50.70;;;;;;5049456;28;20048;-73
2022/04/16 10:07:42;;;;;;;3.08;1.58;;;22.40;50.10;;;;;;5051200;28;20493;-73
2022/04/16 10:10:19;;;;;;;2.97;1.20;;;22.10;50.20;;;;;;5066014;28;20545;-73
2022/04/16 10:13:03;;;;;;;2.50;1.05;;;22.00;50.20;;;;;;5049594;28;20131;-73
2022/04/16 10:15:53;;;;;;;2.25;1.20;;;22.60;48.90;;;;;;5051983;28;20131;-74
2022/04/16 10:18:21;;;;;;;2.58;1.23;;;22.40;48.80;;;;;;5049996;28;20429;-72
2022/04/16 10:20:52;;;;;;;2.58;1.20;;;22.10;50.30;;;;;;5045947;28;20044;-74
2022/04/16 10:23:30;;;;;;;2.13;1.10;;;22.50;50.60;;;;;;5046953;28;20099;-73
2022/04/16 10:26:09;;;;;;;2.20;1.20;;;22.10;47.90;;;;;;5051447;28;20110;-74
2022/04/16 10:28:41;;;;;;;2.40;1.03;;;22.80;48.70;;;;;;5052463;28;20051;-74
2022/04/16 10:31:20;;;;;;;2.13;1.10;;;23.20;49.10;;;;;;5052387;28;20552;-74
2022/04/16 10:34:08;;;;;;;2.03;1.00;;;23.20;47.10;;;;;;5052194;28;20163;-74
2022/04/16 10:36:37;;;;;;;2.13;1.15;;;22.20;46.20;;;;;;5051890;28;20052;-74
2022/04/16 10:39:14;;;;;;;1.80;1.10;;;22.80;48.10;;;;;;5051733;28;20052;-74
2022/04/16 10:41:53;;;;;;;3.45;1.02;;;23.20;47.60;;;;;;5053378;28;20131;-74
2022/04/16 10:44:19;;;;;;;2.20;0.80;;;22.60;47.10;;;;;;5053257;28;20057;-74
2022/04/16 10:46:48;;;;;;;3.67;1.00;;;22.80;48.00;;;;;;5052741;28;20088;-74
2022/04/16 10:49:17;;;;;;;2.83;1.02;;;23.00;45.90;;;;;;5051965;28;20409;-74
2022/04/16 10:51:44;;;;;;;2.50;0.80;;;22.80;47.70;;;;;;5052120;28;20141;-74
2022/04/16 10:54:12;;;;;;;1.77;0.88;;;23.10;48.10;;;;;;5052364;28;20131;-73
2022/04/16 10:56:40;;;;;;;2.25;1.27;;;23.00;48.00;;;;;;5052732;28;20140;-74
2022/04/16 10:59:10;;;;;;;3.38;0.90;;;22.90;46.70;;;;;;5051841;28;20053;-74
2022/04/16 11:01:38;;;;;;;4.50;0.90;;;22.60;46.40;;;;;;5052377;28;20568;-75
2022/04/16 11:04:13;;;;;;;2.00;0.68;;;23.00;46.90;;;;;;5051851;28;20572;-74
2022/04/16 11:06:44;;;;;;;1.73;0.90;;;23.20;44.90;;;;;;5052347;28;20061;-74
2022/04/16 11:09:13;;;;;;;1.25;0.60;;;22.90;43.80;;;;;;5051765;28;20048;-74
2022/04/16 11:11:41;;;;;;;2.25;0.90;;;22.40;42.50;;;;;;5053045;28;20487;-74
2022/04/16 11:14:10;;;;;;;1.90;0.80;;;22.30;43.70;;;;;;5052009;28;20425;-74
2022/04/16 11:16:43;;;;;;;2.00;0.93;;;22.20;43.80;;;;;;5051333;28;20055;-74
2022/04/16 11:19:13;;;;;;;2.85;0.70;;;22.30;43.90;;;;;;5052550;28;20386;-74
2022/04/16 11:21:40;;;;;;;1.50;0.70;;;22.30;43.90;;;;;;5052086;28;20059;-73
2022/04/16 11:24:07;;;;;;;2.53;0.63;;;22.20;43.80;;;;;;5052906;28;20081;-73
2022/04/16 11:34:52;;;;;;;1.58;0.70;;;22.10;43.30;;;;;;5010907;28;20142;-74
2022/04/16 11:37:19;;;;;;;2.83;0.77;;;22.10;43.40;;;;;;5052534;28;20060;-73
2022/04/16 11:39:48;;;;;;;1.40;0.60;;;22.10;43.20;;;;;;5051729;28;20103;-74
2022/04/16 11:42:15;;;;;;;1.60;0.77;;;22.70;43.60;;;;;;5051956;28;20052;-74
2022/04/16 11:44:45;;;;;;;3.55;0.90;;;22.40;42.90;;;;;;5051279;28;20106;-74
2022/04/16 11:47:14;;;;;;;1.85;0.98;;;22.10;42.60;;;;;;5051265;28;20079;-73
2022/04/16 11:49:44;;;;;;;3.17;1.02;;;21.90;43.50;;;;;;5050527;28;20571;-74
2022/04/16 11:52:11;;;;;;;3.42;0.80;;;21.60;43.70;;;;;;5047207;28;20149;-73
2022/04/16 11:54:39;;;;;;;1.40;0.90;;;21.80;44.50;;;;;;5047553;28;20072;-73
2022/04/16 11:57:06;;;;;;;2.33;0.98;;;22.00;44.70;;;;;;5048994;28;20473;-73
2022/04/16 11:59:35;;;;;;;5.05;1.15;;;22.00;44.90;;;;;;5048251;28;20141;-73
2022/04/16 12:02:08;;;;;;;6.88;1.30;;;22.00;44.50;;;;;;5050974;28;20535;-73
2022/04/16 12:04:40;;;;;;;2.17;0.88;;;21.80;43.60;;;;;;5050275;28;20088;-73
2022/04/16 12:07:14;;;;;;;1.98;1.00;;;21.80;43.50;;;;;;5051934;28;20131;-73
2022/04/16 12:09:46;;;;;;;3.15;0.98;;;22.00;43.10;;;;;;5052525;28;20051;-73
2022/04/16 12:12:17;;;;;;;2.17;0.90;;;21.90;43.60;;;;;;5054256;28;20405;-73
2022/04/16 12:14:48;;;;;;;1.27;0.60;;;21.90;44.10;;;;;;5053574;28;20071;-73
2022/04/16 12:17:24;;;;;;;3.05;1.00;;;22.10;44.20;;;;;;5052266;28;20084;-73
2022/04/16 12:20:05;;;;;;;2.55;0.65;;;22.40;43.50;;;;;;5054428;28;20081;-73
2022/04/16 12:22:33;;;;;;;1.55;0.77;;;22.40;42.40;;;;;;5052559;28;20136;-73
2022/04/16 12:25:10;;;;;;;1.70;0.70;;;22.70;42.40;;;;;;5051291;28;22184;-73
2022/04/16 12:27:44;;;;;;;1.45;0.70;;;22.50;42.30;;;;;;5050783;28;20131;-73
2022/04/16 12:30:16;;;;;;;1.73;1.00;;;22.50;42.30;;;;;;5053914;28;20053;-73
2022/04/16 12:32:58;;;;;;;1.33;0.70;;;22.30;41.70;;;;;;5051534;28;20049;-73
2022/04/16 12:35:25;;;;;;;1.77;0.85;;;22.30;41.30;;;;;;5052399;28;20073;-74
2022/04/16 12:37:53;;;;;;;1.77;0.70;;;22.30;42.20;;;;;;5052930;28;20079;-73
2022/04/16 12:40:20;;;;;;;2.28;0.82;;;22.30;43.40;;;;;;5051961;28;20084;-72
2022/04/16 12:42:47;;;;;;;2.72;1.00;;;22.50;43.00;;;;;;5053198;28;20049;-73
2022/04/16 12:45:14;;;;;;;4.38;1.30;;;22.70;43.30;;;;;;5050541;28;20041;-73
2022/04/16 12:47:41;;;;;;;2.75;0.90;;;23.00;43.40;;;;;;5053697;28;20647;-73
2022/04/16 12:50:10;;;;;;;2.88;0.90;;;23.10;43.20;;;;;;5048259;28;20562;-73
2022/04/16 12:52:37;;;;;;;3.22;1.05;;;23.00;42.90;;;;;;5052326;28;20132;-72
2022/04/16 12:55:04;;;;;;;2.05;0.80;;;22.70;42.20;;;;;;5052677;28;20080;-73
2022/04/16 12:57:31;;;;;;;3.35;0.98;;;22.60;41.70;;;;;;5052513;28;20056;-72
2022/04/16 12:59:58;;;;;;;4.07;0.90;;;22.50;42.20;;;;;;5052960;28;20085;-73
2022/04/16 13:02:25;;;;;;;2.00;0.90;;;22.70;42.50;;;;;;5053588;28;20136;-73
2022/04/16 13:04:54;;;;;;;1.73;0.70;;;22.70;41.90;;;;;;5053244;28;20128;-73
2022/04/16 13:07:22;;;;;;;1.83;0.77;;;22.40;41.90;;;;;;5053903;28;20061;-73